sensor_id;sensor_type;location;lat;lon;timestamp;temperature;humidity
44509;DHT22;30214;52.246;14.408;2024-03-22T00:01:29;9.10;99.90
44509;DHT22;30214;52.246;14.408;2024-03-22T00:03:56;9.00;99.90
44509;DHT22;30214;52.246;14.408;2024-03-22T00:06:25;8.90;99.90
44509;DHT22;30214;52.246;14.408;2024-03-22T00:08:53;8.90;99.90
44509;DHT22;30214;52.246;14.408;2024-03-22T00:11:21;8.90;99.90
44509;DHT22;30214;52.246;14.408;2024-03-22T00:13:49;8.90;99.90
44509;DHT22;30214;52.246;14.408;2024-03-22T00:16:15;8.80;99.90
44509;DHT22;30214;52.246;14.408;2024-03-22T00:18:44;8.80;99.90
44509;DHT22;30214;52.246;14.408;2024-03-22T00:21:12;8.80;99.90
44509;DHT22;30214;52.246;14.408;2024-03-22T00:23:39;8.80;99.90
44509;DHT22;30214;52.246;14.408;2024-03-22T00:26:07;8.70;99.90
44509;DHT22;30214;52.246;14.408;2024-03-22T00:28:37;8.60;99.90
44509;DHT22;30214;52.246;14.408;2024-03-22T00:31:04;8.50;99.90
44509;DHT22;30214;52.246;14.408;2024-03-22T00:33:32;8.50;99.90
44509;DHT22;30214;52.246;14.408;2024-03-22T00:36:02;8.50;99.90
44509;DHT22;30214;52.246;14.408;2024-03-22T00:38:30;8.50;99.90
44509;DHT22;30214;52.246;14.408;2024-03-22T00:40:57;8.50;99.90
44509;DHT22;30214;52.246;14.408;2024-03-22T00:43:25;8.50;99.90
44509;DHT22;30214;52.246;14.408;2024-03-22T00:45:53;8.50;99.90
44509;DHT22;30214;52.246;14.408;2024-03-22T00:48:22;8.40;99.90
44509;DHT22;30214;52.246;14.408;2024-03-22T00:50:49;8.40;99.90
44509;DHT22;30214;52.246;14.408;2024-03-22T00:53:17;8.30;99.90
44509;DHT22;30214;52.246;14.408;2024-03-22T00:55:43;8.30;99.90
44509;DHT22;30214;52.246;14.408;2024-03-22T00:58:12;8.20;99.90
44509;DHT22;30214;52.246;14.408;2024-03-22T01:00:39;8.20;99.90
44509;DHT22;30214;52.246;14.408;2024-03-22T01:03:12;8.30;99.90
44509;DHT22;30214;52.246;14.408;2024-03-22T01:05:39;8.20;99.90
44509;DHT22;30214;52.246;14.408;2024-03-22T01:08:08;8.30;99.90
44509;DHT22;30214;52.246;14.408;2024-03-22T01:10:35;8.20;99.90
44509;DHT22;30214;52.246;14.408;2024-03-22T01:13:04;8.20;99.90
44509;DHT22;30214;52.246;14.408;2024-03-22T01:15:31;8.20;99.90
44509;DHT22;30214;52.246;14.408;2024-03-22T01:18:00;8.10;99.90
44509;DHT22;30214;52.246;14.408;2024-03-22T01:20:28;8.20;99.90
44509;DHT22;30214;52.246;14.408;2024-03-22T01:22:56;8.10;99.90
44509;DHT22;30214;52.246;14.408;2024-03-22T01:25:25;8.10;99.90
44509;DHT22;30214;52.246;14.408;2024-03-22T01:27:53;8.00;99.90
44509;DHT22;30214;52.246;14.408;2024-03-22T01:30:20;7.90;99.90
44509;DHT22;30214;52.246;14.408;2024-03-22T01:32:49;7.90;99.90
44509;DHT22;30214;52.246;14.408;2024-03-22T01:35:16;7.90;99.90
44509;DHT22;30214;52.246;14.408;2024-03-22T01:37:47;7.90;99.90
44509;DHT22;30214;52.246;14.408;2024-03-22T01:40:13;7.90;99.90
44509;DHT22;30214;52.246;14.408;2024-03-22T01:42:43;7.90;99.90
44509;DHT22;30214;52.246;14.408;2024-03-22T01:45:11;7.90;99.90
44509;DHT22;30214;52.246;14.408;2024-03-22T01:47:40;7.80;99.90
44509;DHT22;30214;52.246;14.408;2024-03-22T01:50:08;7.80;99.90
44509;DHT22;30214;52.246;14.408;2024-03-22T01:52:36;7.80;99.90
44509;DHT22;30214;52.246;14.408;2024-03-22T01:55:04;7.70;99.90
44509;DHT22;30214;52.246;14.408;2024-03-22T01:57:32;7.70;99.90
44509;DHT22;30214;52.246;14.408;2024-03-22T01:59:59;7.70;99.90
44509;DHT22;30214;52.246;14.408;2024-03-22T02:02:27;7.70;99.90
44509;DHT22;30214;52.246;14.408;2024-03-22T02:04:53;7.70;99.90
44509;DHT22;30214;52.246;14.408;2024-03-22T02:07:20;7.60;99.90
44509;DHT22;30214;52.246;14.408;2024-03-22T02:09:47;7.60;99.90
44509;DHT22;30214;52.246;14.408;2024-03-22T02:12:16;7.50;99.90
44509;DHT22;30214;52.246;14.408;2024-03-22T02:14:43;7.50;99.90
44509;DHT22;30214;52.246;14.408;2024-03-22T02:17:09;7.40;99.90
44509;DHT22;30214;52.246;14.408;2024-03-22T02:19:36;7.40;99.90
44509;DHT22;30214;52.246;14.408;2024-03-22T02:22:03;7.50;99.90
44509;DHT22;30214;52.246;14.408;2024-03-22T02:24:31;7.50;99.90
44509;DHT22;30214;52.246;14.408;2024-03-22T02:26:57;7.40;99.90
44509;DHT22;30214;52.246;14.408;2024-03-22T02:29:24;7.40;99.90
44509;DHT22;30214;52.246;14.408;2024-03-22T02:31:50;7.50;99.90
44509;DHT22;30214;52.246;14.408;2024-03-22T02:34:17;7.50;99.90
44509;DHT22;30214;52.246;14.408;2024-03-22T02:36:43;7.40;99.90
44509;DHT22;30214;52.246;14.408;2024-03-22T02:39:10;7.50;99.90
44509;DHT22;30214;52.246;14.408;2024-03-22T02:41:38;7.50;99.90
44509;DHT22;30214;52.246;14.408;2024-03-22T02:44:04;7.50;99.90
44509;DHT22;30214;52.246;14.408;2024-03-22T02:46:30;7.50;99.90
44509;DHT22;30214;52.246;14.408;2024-03-22T02:48:57;7.50;99.90
44509;DHT22;30214;52.246;14.408;2024-03-22T02:51:23;7.60;99.90
44509;DHT22;30214;52.246;14.408;2024-03-22T02:53:51;7.60;99.90
44509;DHT22;30214;52.246;14.408;2024-03-22T02:56:16;7.60;99.90
44509;DHT22;30214;52.246;14.408;2024-03-22T02:58:45;7.40;99.90
44509;DHT22;30214;52.246;14.408;2024-03-22T03:01:11;7.40;99.90
44509;DHT22;30214;52.246;14.408;2024-03-22T03:03:38;7.50;99.90
44509;DHT22;30214;52.246;14.408;2024-03-22T03:06:04;7.50;99.90
44509;DHT22;30214;52.246;14.408;2024-03-22T03:08:31;7.50;99.90
44509;DHT22;30214;52.246;14.408;2024-03-22T03:10:58;7.50;99.90
44509;DHT22;30214;52.246;14.408;2024-03-22T03:13:25;7.50;99.90
44509;DHT22;30214;52.246;14.408;2024-03-22T03:15:53;7.60;99.90
44509;DHT22;30214;52.246;14.408;2024-03-22T03:18:20;7.60;99.90
44509;DHT22;30214;52.246;14.408;2024-03-22T03:20:46;7.60;99.90
44509;DHT22;30214;52.246;14.408;2024-03-22T03:23:13;7.60;99.90
44509;DHT22;30214;52.246;14.408;2024-03-22T03:25:39;7.60;99.90
44509;DHT22;30214;52.246;14.408;2024-03-22T03:28:05;7.60;99.90
44509;DHT22;30214;52.246;14.408;2024-03-22T03:30:33;7.60;99.90
44509;DHT22;30214;52.246;14.408;2024-03-22T03:33:02;7.50;99.90
44509;DHT22;30214;52.246;14.408;2024-03-22T03:35:28;7.50;99.90
44509;DHT22;30214;52.246;14.408;2024-03-22T03:37:55;7.50;99.90
44509;DHT22;30214;52.246;14.408;2024-03-22T03:40:21;7.50;99.90
44509;DHT22;30214;52.246;14.408;2024-03-22T03:42:50;7.40;99.90
44509;DHT22;30214;52.246;14.408;2024-03-22T03:45:16;7.40;99.90
44509;DHT22;30214;52.246;14.408;2024-03-22T03:47:43;7.30;99.90
44509;DHT22;30214;52.246;14.408;2024-03-22T03:50:10;7.30;99.90
44509;DHT22;30214;52.246;14.408;2024-03-22T03:52:38;7.30;99.90
44509;DHT22;30214;52.246;14.408;2024-03-22T03:55:04;7.30;99.90
44509;DHT22;30214;52.246;14.408;2024-03-22T03:57:31;7.20;99.90
44509;DHT22;30214;52.246;14.408;2024-03-22T03:59:57;7.30;99.90
44509;DHT22;30214;52.246;14.408;2024-03-22T04:02:24;7.30;99.90
44509;DHT22;30214;52.246;14.408;2024-03-22T04:04:52;7.40;99.90
44509;DHT22;30214;52.246;14.408;2024-03-22T04:07:20;7.40;99.90
44509;DHT22;30214;52.246;14.408;2024-03-22T04:09:46;7.40;99.90
44509;DHT22;30214;52.246;14.408;2024-03-22T04:12:13;7.30;99.90
44509;DHT22;30214;52.246;14.408;2024-03-22T04:14:39;7.40;99.90
44509;DHT22;30214;52.246;14.408;2024-03-22T04:17:06;7.40;99.90
44509;DHT22;30214;52.246;14.408;2024-03-22T04:19:32;7.40;99.90
44509;DHT22;30214;52.246;14.408;2024-03-22T04:21:59;7.40;99.90
44509;DHT22;30214;52.246;14.408;2024-03-22T04:24:27;7.30;99.90
44509;DHT22;30214;52.246;14.408;2024-03-22T04:26:54;7.30;99.90
44509;DHT22;30214;52.246;14.408;2024-03-22T04:29:29;7.30;99.90
44509;DHT22;30214;52.246;14.408;2024-03-22T04:32:05;7.30;99.90
44509;DHT22;30214;52.246;14.408;2024-03-22T04:34:31;7.30;99.90
44509;DHT22;30214;52.246;14.408;2024-03-22T04:37:05;7.30;99.90
44509;DHT22;30214;52.246;14.408;2024-03-22T04:39:34;7.30;99.90
44509;DHT22;30214;52.246;14.408;2024-03-22T04:42:02;7.40;99.90
44509;DHT22;30214;52.246;14.408;2024-03-22T04:44:29;7.40;99.90
44509;DHT22;30214;52.246;14.408;2024-03-22T04:46:56;7.30;99.90
44509;DHT22;30214;52.246;14.408;2024-03-22T04:49:23;7.20;99.90
44509;DHT22;30214;52.246;14.408;2024-03-22T04:51:49;7.30;99.90
44509;DHT22;30214;52.246;14.408;2024-03-22T04:54:16;7.30;99.90
44509;DHT22;30214;52.246;14.408;2024-03-22T04:56:44;7.30;99.90
44509;DHT22;30214;52.246;14.408;2024-03-22T04:59:11;7.30;99.90
44509;DHT22;30214;52.246;14.408;2024-03-22T05:01:37;7.30;99.90
44509;DHT22;30214;52.246;14.408;2024-03-22T05:04:04;7.40;99.90
44509;DHT22;30214;52.246;14.408;2024-03-22T05:06:30;7.40;99.90
44509;DHT22;30214;52.246;14.408;2024-03-22T05:08:59;7.40;99.90
44509;DHT22;30214;52.246;14.408;2024-03-22T05:11:25;7.30;99.90
44509;DHT22;30214;52.246;14.408;2024-03-22T05:13:53;7.30;99.90
44509;DHT22;30214;52.246;14.408;2024-03-22T05:16:19;7.30;99.90
44509;DHT22;30214;52.246;14.408;2024-03-22T05:18:47;7.30;99.90
44509;DHT22;30214;52.246;14.408;2024-03-22T05:21:13;7.30;99.90
44509;DHT22;30214;52.246;14.408;2024-03-22T05:23:40;7.40;99.90
44509;DHT22;30214;52.246;14.408;2024-03-22T05:26:06;7.40;99.90
44509;DHT22;30214;52.246;14.408;2024-03-22T05:28:33;7.40;99.90
44509;DHT22;30214;52.246;14.408;2024-03-22T05:31:00;7.50;99.90
44509;DHT22;30214;52.246;14.408;2024-03-22T05:33:28;7.50;99.90
44509;DHT22;30214;52.246;14.408;2024-03-22T05:35:55;7.50;99.90
44509;DHT22;30214;52.246;14.408;2024-03-22T05:38:52;7.50;99.90
44509;DHT22;30214;52.246;14.408;2024-03-22T05:41:22;7.50;99.90
44509;DHT22;30214;52.246;14.408;2024-03-22T05:43:49;7.50;99.90
44509;DHT22;30214;52.246;14.408;2024-03-22T05:46:17;7.60;99.90
44509;DHT22;30214;52.246;14.408;2024-03-22T05:48:44;7.60;99.90
44509;DHT22;30214;52.246;14.408;2024-03-22T05:51:10;7.60;99.90
44509;DHT22;30214;52.246;14.408;2024-03-22T05:53:39;7.60;99.90
44509;DHT22;30214;52.246;14.408;2024-03-22T05:56:06;7.60;99.90
44509;DHT22;30214;52.246;14.408;2024-03-22T05:58:34;7.70;99.90
44509;DHT22;30214;52.246;14.408;2024-03-22T06:01:00;7.70;99.90
44509;DHT22;30214;52.246;14.408;2024-03-22T06:03:30;7.70;99.90
44509;DHT22;30214;52.246;14.408;2024-03-22T06:05:58;7.70;99.90
44509;DHT22;30214;52.246;14.408;2024-03-22T06:08:26;7.80;99.90
44509;DHT22;30214;52.246;14.408;2024-03-22T06:11:09;7.80;99.90
44509;DHT22;30214;52.246;14.408;2024-03-22T06:13:36;7.90;99.90
44509;DHT22;30214;52.246;14.408;2024-03-22T06:16:02;7.90;99.90
44509;DHT22;30214;52.246;14.408;2024-03-22T06:18:34;7.90;99.90
44509;DHT22;30214;52.246;14.408;2024-03-22T06:21:02;7.90;99.90
44509;DHT22;30214;52.246;14.408;2024-03-22T06:23:29;7.90;99.90
44509;DHT22;30214;52.246;14.408;2024-03-22T06:25:55;8.00;99.90
44509;DHT22;30214;52.246;14.408;2024-03-22T06:28:23;8.10;99.90
44509;DHT22;30214;52.246;14.408;2024-03-22T06:30:49;8.10;99.90
44509;DHT22;30214;52.246;14.408;2024-03-22T06:33:18;8.10;99.90
44509;DHT22;30214;52.246;14.408;2024-03-22T06:35:46;8.10;99.90
44509;DHT22;30214;52.246;14.408;2024-03-22T06:38:13;8.10;99.90
44509;DHT22;30214;52.246;14.408;2024-03-22T06:40:43;8.10;99.90
44509;DHT22;30214;52.246;14.408;2024-03-22T06:43:10;8.10;99.90
44509;DHT22;30214;52.246;14.408;2024-03-22T06:45:36;8.20;99.90
44509;DHT22;30214;52.246;14.408;2024-03-22T06:48:03;8.20;99.90
44509;DHT22;30214;52.246;14.408;2024-03-22T06:50:30;8.30;99.90
44509;DHT22;30214;52.246;14.408;2024-03-22T06:53:02;8.30;99.90
44509;DHT22;30214;52.246;14.408;2024-03-22T06:55:28;8.40;99.90
44509;DHT22;30214;52.246;14.408;2024-03-22T06:57:55;8.40;99.90
44509;DHT22;30214;52.246;14.408;2024-03-22T07:00:21;8.40;99.90
44509;DHT22;30214;52.246;14.408;2024-03-22T07:02:48;8.40;99.90
44509;DHT22;30214;52.246;14.408;2024-03-22T07:05:15;8.50;99.90
44509;DHT22;30214;52.246;14.408;2024-03-22T07:07:42;8.50;99.90
44509;DHT22;30214;52.246;14.408;2024-03-22T07:10:10;8.60;99.90
44509;DHT22;30214;52.246;14.408;2024-03-22T07:12:37;8.70;99.90
44509;DHT22;30214;52.246;14.408;2024-03-22T07:15:04;8.70;99.90
44509;DHT22;30214;52.246;14.408;2024-03-22T07:17:31;8.70;99.90
44509;DHT22;30214;52.246;14.408;2024-03-22T07:19:57;8.70;99.90
44509;DHT22;30214;52.246;14.408;2024-03-22T07:22:24;8.80;99.90
44509;DHT22;30214;52.246;14.408;2024-03-22T07:24:50;8.80;99.90
44509;DHT22;30214;52.246;14.408;2024-03-22T07:27:25;8.80;99.90
44509;DHT22;30214;52.246;14.408;2024-03-22T07:29:55;8.90;99.90
44509;DHT22;30214;52.246;14.408;2024-03-22T07:32:22;9.00;99.90
44509;DHT22;30214;52.246;14.408;2024-03-22T07:34:48;9.00;99.90
44509;DHT22;30214;52.246;14.408;2024-03-22T07:37:15;9.10;99.90
44509;DHT22;30214;52.246;14.408;2024-03-22T07:39:41;9.10;99.90
44509;DHT22;30214;52.246;14.408;2024-03-22T07:42:08;9.20;99.90
44509;DHT22;30214;52.246;14.408;2024-03-22T07:44:39;9.30;99.90
44509;DHT22;30214;52.246;14.408;2024-03-22T07:47:06;9.30;99.90
44509;DHT22;30214;52.246;14.408;2024-03-22T07:49:34;9.30;99.90
44509;DHT22;30214;52.246;14.408;2024-03-22T07:52:02;9.40;99.90
44509;DHT22;30214;52.246;14.408;2024-03-22T07:54:29;9.50;99.90
44509;DHT22;30214;52.246;14.408;2024-03-22T07:56:57;9.50;99.90
44509;DHT22;30214;52.246;14.408;2024-03-22T07:59:23;9.50;99.90
44509;DHT22;30214;52.246;14.408;2024-03-22T08:01:52;9.40;99.90
44509;DHT22;30214;52.246;14.408;2024-03-22T08:04:18;9.40;99.90
44509;DHT22;30214;52.246;14.408;2024-03-22T08:06:46;9.50;99.90
44509;DHT22;30214;52.246;14.408;2024-03-22T08:09:12;9.60;99.90
44509;DHT22;30214;52.246;14.408;2024-03-22T08:11:39;9.60;99.90
44509;DHT22;30214;52.246;14.408;2024-03-22T08:14:05;9.70;99.90
44509;DHT22;30214;52.246;14.408;2024-03-22T08:16:32;9.80;99.90
44509;DHT22;30214;52.246;14.408;2024-03-22T08:19:00;10.00;99.90
44509;DHT22;30214;52.246;14.408;2024-03-22T08:21:29;10.10;99.90
44509;DHT22;30214;52.246;14.408;2024-03-22T08:23:56;10.20;99.90
44509;DHT22;30214;52.246;14.408;2024-03-22T08:26:23;10.40;99.90
44509;DHT22;30214;52.246;14.408;2024-03-22T08:28:49;10.40;99.90
44509;DHT22;30214;52.246;14.408;2024-03-22T08:31:18;10.40;99.90
44509;DHT22;30214;52.246;14.408;2024-03-22T08:33:51;10.40;99.90
44509;DHT22;30214;52.246;14.408;2024-03-22T08:36:20;10.30;99.90
44509;DHT22;30214;52.246;14.408;2024-03-22T08:38:48;10.30;99.90
44509;DHT22;30214;52.246;14.408;2024-03-22T08:41:15;10.30;99.90
44509;DHT22;30214;52.246;14.408;2024-03-22T08:43:41;10.40;99.90
44509;DHT22;30214;52.246;14.408;2024-03-22T08:46:08;10.40;99.90
44509;DHT22;30214;52.246;14.408;2024-03-22T08:48:34;10.40;99.90
44509;DHT22;30214;52.246;14.408;2024-03-22T08:51:01;10.40;99.90
44509;DHT22;30214;52.246;14.408;2024-03-22T08:53:29;10.40;99.90
44509;DHT22;30214;52.246;14.408;2024-03-22T08:55:56;10.40;99.90
44509;DHT22;30214;52.246;14.408;2024-03-22T08:58:22;10.40;99.90
44509;DHT22;30214;52.246;14.408;2024-03-22T09:00:49;10.50;99.90
44509;DHT22;30214;52.246;14.408;2024-03-22T09:03:15;10.40;99.90
44509;DHT22;30214;52.246;14.408;2024-03-22T09:05:41;10.40;99.90
44509;DHT22;30214;52.246;14.408;2024-03-22T09:08:10;10.40;99.90
44509;DHT22;30214;52.246;14.408;2024-03-22T09:10:39;10.40;99.90
44509;DHT22;30214;52.246;14.408;2024-03-22T09:13:08;10.50;99.90
44509;DHT22;30214;52.246;14.408;2024-03-22T09:15:39;10.60;99.90
44509;DHT22;30214;52.246;14.408;2024-03-22T09:18:05;10.70;99.90
44509;DHT22;30214;52.246;14.408;2024-03-22T09:20:33;10.80;99.90
44509;DHT22;30214;52.246;14.408;2024-03-22T09:22:59;10.90;99.90
44509;DHT22;30214;52.246;14.408;2024-03-22T09:25:30;10.90;99.90
44509;DHT22;30214;52.246;14.408;2024-03-22T09:27:57;11.00;99.90
44509;DHT22;30214;52.246;14.408;2024-03-22T09:30:24;11.10;99.90
44509;DHT22;30214;52.246;14.408;2024-03-22T09:32:50;11.10;99.90
44509;DHT22;30214;52.246;14.408;2024-03-22T09:35:18;11.20;99.90
44509;DHT22;30214;52.246;14.408;2024-03-22T09:37:45;11.30;99.90
44509;DHT22;30214;52.246;14.408;2024-03-22T09:40:11;11.40;99.90
44509;DHT22;30214;52.246;14.408;2024-03-22T09:42:41;11.40;99.90
44509;DHT22;30214;52.246;14.408;2024-03-22T09:45:12;11.30;99.90
44509;DHT22;30214;52.246;14.408;2024-03-22T09:47:39;11.30;99.90
44509;DHT22;30214;52.246;14.408;2024-03-22T09:50:07;11.40;99.90
44509;DHT22;30214;52.246;14.408;2024-03-22T09:52:38;11.40;99.90
44509;DHT22;30214;52.246;14.408;2024-03-22T09:55:05;11.50;99.90
44509;DHT22;30214;52.246;14.408;2024-03-22T09:57:35;11.40;99.90
44509;DHT22;30214;52.246;14.408;2024-03-22T10:00:05;11.40;99.90
44509;DHT22;30214;52.246;14.408;2024-03-22T10:02:39;11.40;99.90
44509;DHT22;30214;52.246;14.408;2024-03-22T10:05:06;11.30;99.90
44509;DHT22;30214;52.246;14.408;2024-03-22T10:07:34;11.30;99.90
44509;DHT22;30214;52.246;14.408;2024-03-22T10:10:01;11.30;99.90
44509;DHT22;30214;52.246;14.408;2024-03-22T10:12:28;11.30;99.90
44509;DHT22;30214;52.246;14.408;2024-03-22T10:14:54;11.30;99.90
44509;DHT22;30214;52.246;14.408;2024-03-22T10:17:21;11.30;99.90
44509;DHT22;30214;52.246;14.408;2024-03-22T10:19:50;11.30;99.90
44509;DHT22;30214;52.246;14.408;2024-03-22T10:22:17;11.20;99.90
44509;DHT22;30214;52.246;14.408;2024-03-22T10:24:44;11.30;99.90
44509;DHT22;30214;52.246;14.408;2024-03-22T10:27:10;11.30;99.90
44509;DHT22;30214;52.246;14.408;2024-03-22T10:29:38;11.30;99.90
44509;DHT22;30214;52.246;14.408;2024-03-22T10:32:06;11.30;99.90
44509;DHT22;30214;52.246;14.408;2024-03-22T10:34:35;11.40;99.90
44509;DHT22;30214;52.246;14.408;2024-03-22T10:37:04;11.40;99.90
44509;DHT22;30214;52.246;14.408;2024-03-22T10:39:33;11.40;99.90
44509;DHT22;30214;52.246;14.408;2024-03-22T10:41:59;11.50;99.90
44509;DHT22;30214;52.246;14.408;2024-03-22T10:44:30;11.50;99.90
44509;DHT22;30214;52.246;14.408;2024-03-22T10:46:59;11.70;99.90
44509;DHT22;30214;52.246;14.408;2024-03-22T10:49:29;11.80;99.90
44509;DHT22;30214;52.246;14.408;2024-03-22T10:51:58;12.00;99.90
44509;DHT22;30214;52.246;14.408;2024-03-22T10:54:33;12.20;99.90
44509;DHT22;30214;52.246;14.408;2024-03-22T10:56:59;12.20;99.90
44509;DHT22;30214;52.246;14.408;2024-03-22T10:59:27;12.30;99.90
44509;DHT22;30214;52.246;14.408;2024-03-22T11:02:03;12.30;99.90
44509;DHT22;30214;52.246;14.408;2024-03-22T11:04:33;12.30;99.90
44509;DHT22;30214;52.246;14.408;2024-03-22T11:06:59;12.30;99.90
44509;DHT22;30214;52.246;14.408;2024-03-22T11:09:29;12.30;99.90
44509;DHT22;30214;52.246;14.408;2024-03-22T11:11:57;12.20;99.90
44509;DHT22;30214;52.246;14.408;2024-03-22T11:14:29;12.30;99.90
44509;DHT22;30214;52.246;14.408;2024-03-22T11:16:56;12.30;99.90
44509;DHT22;30214;52.246;14.408;2024-03-22T11:19:24;12.30;99.90
44509;DHT22;30214;52.246;14.408;2024-03-22T11:21:50;12.40;99.90
44509;DHT22;30214;52.246;14.408;2024-03-22T11:24:17;12.50;99.90
44509;DHT22;30214;52.246;14.408;2024-03-22T11:26:45;12.60;99.90
44509;DHT22;30214;52.246;14.408;2024-03-22T11:29:12;12.60;99.90
44509;DHT22;30214;52.246;14.408;2024-03-22T11:31:40;12.50;99.90
44509;DHT22;30214;52.246;14.408;2024-03-22T11:34:07;12.60;99.90
44509;DHT22;30214;52.246;14.408;2024-03-22T11:36:35;12.60;99.90
44509;DHT22;30214;52.246;14.408;2024-03-22T11:39:02;12.60;99.90
44509;DHT22;30214;52.246;14.408;2024-03-22T11:41:30;12.70;99.90
44509;DHT22;30214;52.246;14.408;2024-03-22T11:43:59;12.90;99.90
44509;DHT22;30214;52.246;14.408;2024-03-22T11:46:27;13.00;99.90
44509;DHT22;30214;52.246;14.408;2024-03-22T11:48:59;13.10;99.90
44509;DHT22;30214;52.246;14.408;2024-03-22T11:51:29;13.10;99.90
44509;DHT22;30214;52.246;14.408;2024-03-22T11:53:56;13.20;99.90
44509;DHT22;30214;52.246;14.408;2024-03-22T11:56:25;13.10;99.90
44509;DHT22;30214;52.246;14.408;2024-03-22T11:58:59;13.10;99.90
44509;DHT22;30214;52.246;14.408;2024-03-22T12:01:26;13.20;99.90
44509;DHT22;30214;52.246;14.408;2024-03-22T12:03:53;13.30;99.90
44509;DHT22;30214;52.246;14.408;2024-03-22T12:06:20;13.30;99.90
44509;DHT22;30214;52.246;14.408;2024-03-22T12:08:47;13.30;99.90
44509;DHT22;30214;52.246;14.408;2024-03-22T12:11:13;13.50;99.90
44509;DHT22;30214;52.246;14.408;2024-03-22T12:13:41;13.60;99.90
44509;DHT22;30214;52.246;14.408;2024-03-22T12:16:09;13.70;99.90
44509;DHT22;30214;52.246;14.408;2024-03-22T12:18:36;13.60;99.90
44509;DHT22;30214;52.246;14.408;2024-03-22T12:21:02;13.80;99.90
44509;DHT22;30214;52.246;14.408;2024-03-22T12:23:29;14.00;99.90
44509;DHT22;30214;52.246;14.408;2024-03-22T12:25:59;14.30;99.90
44509;DHT22;30214;52.246;14.408;2024-03-22T12:28:26;14.50;99.90
44509;DHT22;30214;52.246;14.408;2024-03-22T12:30:52;14.60;99.90
44509;DHT22;30214;52.246;14.408;2024-03-22T12:33:23;14.50;99.90
44509;DHT22;30214;52.246;14.408;2024-03-22T12:35:49;14.40;99.90
44509;DHT22;30214;52.246;14.408;2024-03-22T12:38:16;14.20;99.90
44509;DHT22;30214;52.246;14.408;2024-03-22T12:40:44;14.00;99.90
44509;DHT22;30214;52.246;14.408;2024-03-22T12:43:11;14.00;99.90
44509;DHT22;30214;52.246;14.408;2024-03-22T12:45:37;14.10;99.90
44509;DHT22;30214;52.246;14.408;2024-03-22T12:48:05;14.00;99.90
44509;DHT22;30214;52.246;14.408;2024-03-22T12:50:32;13.90;99.90
44509;DHT22;30214;52.246;14.408;2024-03-22T12:53:00;13.80;99.90
44509;DHT22;30214;52.246;14.408;2024-03-22T12:55:28;13.80;99.90
44509;DHT22;30214;52.246;14.408;2024-03-22T12:57:57;13.90;99.90
44509;DHT22;30214;52.246;14.408;2024-03-22T13:00:23;13.70;99.90
44509;DHT22;30214;52.246;14.408;2024-03-22T13:02:51;13.70;99.90
44509;DHT22;30214;52.246;14.408;2024-03-22T13:05:18;13.70;99.90
44509;DHT22;30214;52.246;14.408;2024-03-22T13:07:49;13.60;99.90
44509;DHT22;30214;52.246;14.408;2024-03-22T13:10:18;13.60;99.90
44509;DHT22;30214;52.246;14.408;2024-03-22T13:12:45;13.50;99.90
44509;DHT22;30214;52.246;14.408;2024-03-22T13:15:12;13.50;99.90
44509;DHT22;30214;52.246;14.408;2024-03-22T13:17:39;13.40;99.90
44509;DHT22;30214;52.246;14.408;2024-03-22T13:20:06;13.40;99.90
44509;DHT22;30214;52.246;14.408;2024-03-22T13:22:36;13.40;99.90
44509;DHT22;30214;52.246;14.408;2024-03-22T13:25:07;13.50;99.90
44509;DHT22;30214;52.246;14.408;2024-03-22T13:27:36;13.50;99.90
44509;DHT22;30214;52.246;14.408;2024-03-22T13:30:06;13.50;99.90
44509;DHT22;30214;52.246;14.408;2024-03-22T13:32:35;13.50;99.90
44509;DHT22;30214;52.246;14.408;2024-03-22T13:35:05;13.40;99.90
44509;DHT22;30214;52.246;14.408;2024-03-22T13:37:32;13.30;99.90
44509;DHT22;30214;52.246;14.408;2024-03-22T13:40:06;13.30;99.90
44509;DHT22;30214;52.246;14.408;2024-03-22T13:42:37;13.20;99.90
44509;DHT22;30214;52.246;14.408;2024-03-22T13:45:06;13.10;99.90
44509;DHT22;30214;52.246;14.408;2024-03-22T13:47:38;13.00;99.90
44509;DHT22;30214;52.246;14.408;2024-03-22T13:50:07;12.90;99.90
44509;DHT22;30214;52.246;14.408;2024-03-22T13:52:40;12.80;99.90
44509;DHT22;30214;52.246;14.408;2024-03-22T13:55:11;12.70;99.90
44509;DHT22;30214;52.246;14.408;2024-03-22T13:57:38;12.60;99.90
44509;DHT22;30214;52.246;14.408;2024-03-22T14:00:05;12.60;99.90
44509;DHT22;30214;52.246;14.408;2024-03-22T14:02:40;12.50;99.90
44509;DHT22;30214;52.246;14.408;2024-03-22T14:05:06;12.50;99.90
44509;DHT22;30214;52.246;14.408;2024-03-22T14:07:37;12.40;99.90
44509;DHT22;30214;52.246;14.408;2024-03-22T14:10:11;12.30;99.90
44509;DHT22;30214;52.246;14.408;2024-03-22T14:12:38;12.10;99.90
44509;DHT22;30214;52.246;14.408;2024-03-22T14:15:05;12.10;99.90
44509;DHT22;30214;52.246;14.408;2024-03-22T14:17:32;12.00;99.90
44509;DHT22;30214;52.246;14.408;2024-03-22T14:19:58;11.90;99.90
44509;DHT22;30214;52.246;14.408;2024-03-22T14:22:26;11.90;99.90
44509;DHT22;30214;52.246;14.408;2024-03-22T14:24:52;11.90;99.90
44509;DHT22;30214;52.246;14.408;2024-03-22T14:27:20;11.90;99.90
44509;DHT22;30214;52.246;14.408;2024-03-22T14:29:46;11.90;99.90
44509;DHT22;30214;52.246;14.408;2024-03-22T14:32:14;11.80;99.90
44509;DHT22;30214;52.246;14.408;2024-03-22T14:34:40;11.80;99.90
44509;DHT22;30214;52.246;14.408;2024-03-22T14:37:12;11.70;99.90
44509;DHT22;30214;52.246;14.408;2024-03-22T14:39:38;11.60;99.90
44509;DHT22;30214;52.246;14.408;2024-03-22T14:42:07;11.50;99.90
44509;DHT22;30214;52.246;14.408;2024-03-22T14:44:35;11.60;99.90
44509;DHT22;30214;52.246;14.408;2024-03-22T14:47:05;11.60;99.90
44509;DHT22;30214;52.246;14.408;2024-03-22T14:49:34;11.60;99.90
44509;DHT22;30214;52.246;14.408;2024-03-22T14:52:02;11.60;99.90
44509;DHT22;30214;52.246;14.408;2024-03-22T14:54:28;11.50;99.90
44509;DHT22;30214;52.246;14.408;2024-03-22T14:56:56;11.60;99.90
44509;DHT22;30214;52.246;14.408;2024-03-22T14:59:23;11.50;99.90
44509;DHT22;30214;52.246;14.408;2024-03-22T15:01:51;11.50;99.90
44509;DHT22;30214;52.246;14.408;2024-03-22T15:04:18;11.50;99.90
44509;DHT22;30214;52.246;14.408;2024-03-22T15:06:45;11.50;99.90
44509;DHT22;30214;52.246;14.408;2024-03-22T15:09:17;11.50;99.90
44509;DHT22;30214;52.246;14.408;2024-03-22T15:11:44;11.40;99.90
44509;DHT22;30214;52.246;14.408;2024-03-22T15:14:11;11.30;99.90
44509;DHT22;30214;52.246;14.408;2024-03-22T15:16:38;11.30;99.90
44509;DHT22;30214;52.246;14.408;2024-03-22T15:19:06;11.30;99.90
44509;DHT22;30214;52.246;14.408;2024-03-22T15:21:33;11.30;99.90
44509;DHT22;30214;52.246;14.408;2024-03-22T15:24:04;11.40;99.90
44509;DHT22;30214;52.246;14.408;2024-03-22T15:26:32;11.40;99.90
44509;DHT22;30214;52.246;14.408;2024-03-22T15:28:58;11.40;99.90